Latest Weather Observations for Avalon

IDV60801

Issued at 3:31 pm EDT Wednesday 1 April 2015 (issued every 30 minutes, with the page automatically refreshed every 10 minutes)

About weather observations | Map of weather stations | Latest weather observations for VIC | Other Formats
Station Details ID: 087113 Name: AVALON AIRPORT Lat: -38.03 Lon: 144.48 Height: 10.6 m
Data from the previous 72 hours. | See also: Recent months at Avalon
Date/Time
EDT
Temp
°C
App
Temp
°C
Dew
Point
Rel
Hum
%
Delta-T
°C
Wind Press
QNH
hPa
Press
MSL
hPa
Rain
since 9 am
mm
Dir
 
Spd
km/h
Gust
km/h
Spd
kts
Gust
kts
01/03:30pm 28.9 23.0 9.1 29 11.0 NNW 30 41 16 22 1012.7 1012.7 0.0
01/03:00pm 28.7 23.0 8.4 28 11.1 NNW 28 39 15 21 1012.9 1012.9 0.0
01/02:33pm 28.7 23.1 8.9 29 10.9 N 28 46 15 25 1013.3 1013.3 0.0
01/02:30pm 28.7 23.7 9.4 30 10.7 N 26 33 14 18 1013.3 1013.3 0.0
01/02:00pm 28.1 21.2 8.9 30 10.6 NNW 35 46 19 25 1014.0 1014.0 0.0
01/01:30pm 30.9 24.5 9.2 26 12.2 N 33 48 18 26 1014.2 1014.2 0.0
01/01:05pm 30.6 24.4 9.5 27 11.9 N 32 50 17 27 1014.6 1014.6 0.0
01/01:00pm 31.0 24.8 9.3 26 12.2 N 32 44 17 24 1014.6 1014.6 0.0
01/12:31pm 29.5 23.9 10.1 30 11.0 N 30 50 16 27 1015.1 1015.1 0.0
01/12:30pm 29.5 24.0 10.6 31 10.8 N 30 39 16 21 1015.3 1015.3 0.0
01/12:00pm 26.2 22.0 11.2 39 8.5 NE 24 30 13 16 1015.9 1015.9 0.0
01/11:30am 24.8 21.2 10.7 41 7.9 NNE 20 28 11 15 1016.5 1016.5 0.0
01/11:00am 23.9 19.6 10.6 43 7.4 NNE 24 33 13 18 1016.9 1016.9 0.0
01/10:30am 23.1 18.6 10.2 44 7.1 NNE 24 30 13 16 1017.1 1017.1 0.0
01/10:00am 21.8 17.5 9.3 45 6.7 NNE 22 30 12 16 1017.6 1017.6 0.0
01/09:30am 21.3 16.1 8.9 45 6.6 NNE 26 33 14 18 1017.8 1017.8 0.0
01/09:00am 20.5 16.3 8.2 45 6.4 NNE 20 28 11 15 1017.9 1017.9 0.0
01/08:30am 19.6 15.3 8.0 47 6.0 NNE 20 28 11 15 1018.0 1018.0 0.0
01/08:00am 19.0 14.8 8.1 49 5.6 NNE 20 24 11 13 1018.1 1018.1 0.0
01/07:30am 18.7 13.6 7.8 49 5.6 NNE 24 30 13 16 1018.0 1018.0 0.0
01/07:00am 18.2 15.2 10.6 61 4.1 NNE 17 24 9 13 1017.8 1017.8 0.0
01/06:55am 16.8 14.5 11.9 73 2.7 NNE 15 22 8 12 1017.9 1017.9 0.0
01/06:30am 11.0 10.0 8.9 87 1.0 ESE 4 7 2 4 1017.9 1017.9 0.0
01/06:00am 9.8 8.2 7.9 88 0.9 SSW 6 7 3 4 1018.0 1018.0 0.0
01/05:30am 10.4 8.7 8.2 86 1.1 NW 7 9 4 5 1018.1 1018.1 0.0
01/05:00am 10.1 9.6 7.7 85 1.1 CALM 0 0 0 0 1018.4 1018.4 0.0
01/04:30am 11.2 10.6 8.9 86 1.1 ENE 2 7 1 4 1018.6 1018.6 0.0
01/04:00am 11.2 11.0 8.9 86 1.1 CALM 0 6 0 3 1019.0 1019.0 0.0
01/03:30am 11.9 11.2 10.1 89 0.9 NE 4 11 2 6 1019.2 1019.2 0.0
01/03:00am 12.2 11.2 10.4 89 0.9 NNW 6 11 3 6 1019.7 1019.7 0.0
01/02:30am 12.1 10.3 10.8 92 0.7 NE 11 13 6 7 1020.2 1020.2 0.0
01/02:00am 12.5 11.6 11.4 93 0.6 NE 7 11 4 6 1020.7 1020.7 0.0
01/01:30am 11.9 12.2 10.8 93 0.6 CALM 0 0 0 0 1020.9 1020.9 0.0
01/01:00am 12.6 13.1 11.5 93 0.6 CALM 0 0 0 0 1021.0 1021.0 0.0
01/12:30am 12.8 12.1 11.5 92 0.7 W 6 7 3 4 1021.4 1021.4 0.0
01/12:00am 12.9 12.2 11.3 90 0.8 NW 6 9 3 5 1021.9 1021.9 0.0
 
Date/Time
EDT
Temp
°C
App
Temp
°C
Dew
Point
Rel
Hum
%
Delta-T
°C
Wind Press
QNH
hPa
Press
MSL
hPa
Rain
since 9 am
mm
Dir
 
Spd
km/h
Gust
km/h
Spd
kts
Gust
kts
31/11:30pm 13.9 13.4 12.6 92 0.7 NNW 7 9 4 5 1022.1 1022.1 0.0
31/11:00pm 13.7 13.0 11.9 89 1.0 WNW 7 9 4 5 1022.3 1022.3 0.0
31/10:30pm 14.2 13.3 12.6 90 0.9 N 9 9 5 5 1022.2 1022.2 0.0
31/10:28pm 14.1 13.6 12.5 90 0.9 N 7 9 4 5 1022.2 1022.2 0.0
31/10:00pm 15.2 15.2 13.6 90 0.9 N 6 7 3 4 1022.3 1022.3 0.0
31/09:30pm 14.8 14.6 13.0 89 1.0 N 6 7 3 4 1022.4 1022.4 0.0
31/09:00pm 15.1 15.5 12.4 84 1.5 W 2 6 1 3 1022.7 1022.7 0.0
31/08:54pm 15.6 15.4 12.9 84 1.5 W 6 7 3 4 1022.7 1022.7 0.0
31/08:30pm 16.5 16.2 12.8 79 2.0 W 6 9 3 5 1022.6 1022.6 0.0
31/08:00pm 17.6 17.6 13.7 78 2.2 SSW 6 7 3 4 1022.1 1022.1 0.0
31/07:30pm 18.3 18.0 13.4 73 2.8 S 7 11 4 6 1022.0 1022.0 0.0
31/07:00pm 19.7 18.8 13.6 68 3.5 SE 11 15 6 8 1021.5 1021.5 0.0
31/06:30pm 21.2 19.8 13.4 61 4.5 SE 13 17 7 9 1021.4 1021.4 0.0
31/05:30pm 23.0 20.3 12.9 53 5.8 SSE 19 24 10 13 1021.6 1021.6 0.0
31/05:00pm 23.2 20.3 12.2 50 6.2 ESE 19 22 10 12 1021.5 1021.5 0.0
31/04:30pm 23.1 20.4 11.8 49 6.4 SE 17 20 9 11 1021.8 1021.8 0.0
31/04:00pm 23.0 20.2 11.4 48 6.5 SE 17 22 9 12 1022.2 1022.2 0.0
31/03:30pm 22.6 19.5 11.7 50 6.1 ESE 19 24 10 13 1022.4 1022.4 0.0
31/03:14pm 22.2 18.9 11.6 51 5.9 ESE 20 24 11 13 1022.6 1022.6 0.0
31/03:00pm 22.2 18.9 11.6 51 5.9 SE 20 24 11 13 1022.8 1022.8 0.0
31/02:30pm 21.5 18.3 11.8 54 5.4 ESE 20 24 11 13 1022.9 1022.9 0.0
31/02:00pm 21.1 17.9 11.4 54 5.3 ESE 19 24 10 13 1023.6 1023.6 0.0
31/01:30pm 21.5 18.4 12.1 55 5.3 ESE 20 28 11 15 1024.0 1024.0 0.0
31/01:00pm 21.2 18.8 12.6 58 4.8 ESE 17 22 9 12 1024.8 1024.8 0.0
31/12:30pm 20.7 18.5 12.1 58 4.8 ENE 15 20 8 11 1025.1 1025.1 0.0
31/12:00pm 20.2 17.9 11.7 58 4.7 ENE 15 20 8 11 1025.6 1025.6 0.0
31/11:30am 19.6 17.7 11.9 61 4.3 E 13 19 7 10 1026.2 1026.2 0.0
31/11:00am 18.5 17.6 13.6 73 2.8 E 11 19 6 10 1026.5 1026.5 0.0
31/10:30am 18.4 19.8 14.3 77 2.4 CALM 0 6 0 3 1027.1 1027.1 0.0
31/10:00am 15.8 15.7 13.3 85 1.4 W 6 9 3 5 1027.1 1027.1 0.0
31/09:30am 13.7 13.4 12.8 94 0.5 WSW 6 7 3 4 1027.0 1027.0 0.0
31/09:00am 11.7 11.0 11.4 98 0.2 WNW 6 7 3 4 1026.7 1026.7 0.0
31/08:30am 9.7 8.3 9.6 99 0.0 NW 7 9 4 5 1026.5 1026.5 0.0
31/08:26am 9.7 8.3 9.6 99 0.0 WNW 7 9 4 5 1026.5 1026.5 0.0
31/08:00am 8.2 6.0 7.9 98 0.1 W 9 11 5 6 1026.5 1026.5 0.0
31/07:59am 8.2 5.6 7.9 98 0.1 W 11 11 6 6 1026.5 1026.5 0.0
31/07:30am 8.0 5.8 7.7 98 0.1 NW 9 11 5 6 1026.2 1026.2 0.0
31/07:00am 8.1 7.2 7.7 97 0.2 N 2 11 1 6 1025.8 1025.8 0.0
31/06:30am 8.3 6.6 7.7 96 0.3 W 6 7 3 4 1025.7 1025.7 0.0
31/06:00am 7.9 5.9 7.3 96 0.3 WNW 7 9 4 5 1025.5 1025.5 0.0
31/05:30am 8.3 6.1 7.7 96 0.3 WNW 9 9 5 5 1025.4 1025.4 0.0
31/05:00am 8.3 6.5 7.9 97 0.2 WNW 7 7 4 4 1025.4 1025.4 0.0
31/04:40am 8.8 7.1 8.4 97 0.2 WNW 7 9 4 5 1025.4 1025.4 0.0
31/04:30am 9.1 7.6 8.6 97 0.2 NW 6 7 3 4 1025.4 1025.4 0.0
31/04:16am 9.1 7.6 8.5 96 0.3 NW 6 7 3 4 1025.5 1025.5 0.0
31/04:12am 9.1 7.6 8.5 96 0.3 WNW 6 7 3 4 1025.5 1025.5 0.0
31/04:01am 9.7 8.2 9.1 96 0.3 NW 7 9 4 5 1025.5 1025.5 0.0
31/04:00am 9.6 8.1 9.0 96 0.3 NW 7 9 4 5 1025.5 1025.5 0.0
31/03:30am 9.3 7.2 8.4 94 0.4 NNW 9 9 5 5 1025.7 1025.7 0.0
31/03:00am 9.8 7.9 8.9 94 0.4 NNW 9 11 5 6 1025.9 1025.9 0.0
31/02:30am 10.5 8.7 9.4 93 0.5 NNW 9 11 5 6 1026.0 1026.0 0.0
31/02:00am 10.5 8.7 9.4 93 0.5 NNW 9 9 5 5 1026.2 1026.2 0.0
31/01:30am 10.7 9.3 9.6 93 0.6 NW 7 9 4 5 1026.2 1026.2 0.0
31/01:00am 11.1 9.8 9.9 92 0.6 WNW 7 7 4 4 1026.3 1026.3 0.0
31/12:30am 10.9 9.4 9.2 89 0.8 NW 7 9 4 5 1026.3 1026.3 0.0
31/12:00am 11.1 9.5 8.8 86 1.1 WNW 7 7 4 4 1026.4 1026.4 0.0
 
Date/Time
EDT
Temp
°C
App
Temp
°C
Dew
Point
Rel
Hum
%
Delta-T
°C
Wind Press
QNH
hPa
Press
MSL
hPa
Rain
since 9 am
mm
Dir
 
Spd
km/h
Gust
km/h
Spd
kts
Gust
kts
30/11:30pm 12.4 12.6 10.6 89 0.9 CALM 0 0 0 0 1026.5 1026.5 0.0
30/11:00pm 12.6 12.8 10.5 87 1.1 CALM 0 0 0 0 1026.5 1026.5 0.0
30/10:30pm 13.4 13.7 10.9 85 1.3 CALM 0 0 0 0 1026.6 1026.6 0.0
30/10:00pm 13.9 14.3 11.4 85 1.3 CALM 0 0 0 0 1026.5 1026.5 0.0
30/09:30pm 14.6 13.9 11.9 84 1.5 S 7 7 4 4 1026.5 1026.5 0.0
30/09:00pm 14.7 13.5 11.5 81 1.7 SSE 9 11 5 6 1026.4 1026.4 0.0
30/08:30pm 15.1 13.4 11.1 77 2.1 S 11 13 6 7 1026.2 1026.2 0.0
30/08:00pm 15.6 13.5 11.2 75 2.3 SSE 13 13 7 7 1025.8 1025.8 0.0
30/07:30pm 16.7 14.2 11.2 70 3.0 S 15 19 8 10 1025.4 1025.4 0.0
30/07:00pm 18.2 16.1 11.0 63 3.9 SSE 13 17 7 9 1025.0 1025.0 0.0
30/06:30pm 19.2 16.3 11.0 59 4.5 SSE 17 20 9 11 1024.5 1024.5 0.0
30/06:00pm 19.8 16.3 11.0 57 4.8 SSE 20 26 11 14 1024.0 1024.0 0.0
30/05:30pm 20.8 17.4 11.2 54 5.3 SSE 20 28 11 15 1023.8 1023.8 0.0
30/05:00pm 21.4 17.1 10.9 51 5.7 S 24 28 13 15 1023.5 1023.5 0.0
30/04:30pm 21.9 17.1 10.4 48 6.3 S 26 32 14 17 1023.4 1023.4 0.0
30/04:00pm 22.5 18.2 10.9 48 6.4 S 24 30 13 16 1023.2 1023.2 0.0
30/03:30pm 23.6 18.5 10.6 44 7.2 S 28 35 15 19 1023.3 1023.3 0.0
30/03:00pm 24.3 20.3 9.1 38 8.2 SSW 20 30 11 16 1023.2 1023.2 0.0
30/02:30pm 24.0 19.8 8.4 37 8.3 SW 20 30 11 16 1023.5 1023.5 0.0
30/02:00pm 23.4 20.4 9.4 41 7.5 WSW 15 20 8 11 1023.7 1023.7 0.0
30/01:30pm 23.0 20.1 9.8 43 7.2 WSW 15 28 8 15 1024.1 1024.1 0.0
30/01:00pm 22.2 20.2 10.0 46 6.6 SW 11 26 6 14 1024.3 1024.3 0.0
30/12:30pm 21.9 20.5 11.0 50 6.0 SSW 9 20 5 11 1024.6 1024.6 0.0
30/12:00pm 21.6 20.3 10.1 48 6.2 WNW 7 13 4 7 1024.7 1024.7 0.0
30/11:30am 20.7 19.4 9.3 48 6.1 WNW 6 11 3 6 1024.9 1024.9 0.0
30/11:00am 19.9 17.9 10.3 54 5.2 NW 11 17 6 9 1025.0 1025.0 0.0
30/10:30am 18.7 17.6 10.5 59 4.4 WNW 7 11 4 6 1025.0 1025.0 0.0
30/10:00am 16.9 15.4 10.7 67 3.3 WNW 9 13 5 7 1025.0 1025.0 0.0
30/09:30am 14.5 12.2 10.3 76 2.2 WNW 13 17 7 9 1024.7 1024.7 0.0
30/09:00am 12.6 10.3 10.3 86 1.2 WNW 13 15 7 8 1024.6 1024.6 0.0
30/08:30am 10.9 8.5 10.0 94 0.5 WNW 13 17 7 9 1024.2 1024.2 0.0
30/08:00am 9.3 6.5 8.4 94 0.4 NW 13 15 7 8 1024.0 1024.0 0.0
30/07:30am 9.4 6.6 8.6 95 0.4 WNW 13 15 7 8 1023.7 1023.7 0.0
30/07:00am 8.7 5.8 8.1 96 0.3 W 13 15 7 8 1023.5 1023.5 0.0
30/06:30am 8.7 6.1 7.9 95 0.4 W 11 13 6 7 1023.1 1023.1 0.0
30/06:00am 9.7 7.5 9.2 97 0.2 SW 11 15 6 8 1022.8 1022.8 0.0
30/05:30am 8.7 8.3 8.1 96 0.3 CALM 0 0 0 0 1022.7 1022.7 0.0
30/05:00am 8.8 7.2 8.2 96 0.3 NW 6 9 3 5 1022.5 1022.5 0.0
30/04:30am 8.8 6.3 8.2 96 0.3 NNW 11 13 6 7 1022.5 1022.5 0.0
30/04:00am 9.2 6.7 8.4 95 0.4 NNW 11 13 6 7 1022.7 1022.7 0.0
30/03:30am 9.4 9.1 8.5 94 0.4 CALM 0 0 0 0 1022.9 1022.9 0.0
30/03:00am 10.2 10.1 9.3 94 0.4 CALM 0 0 0 0 1023.2 1023.2 0.0
30/02:30am 11.2 11.3 10.3 94 0.5 CALM 0 0 0 0 1023.4 1023.4 0.0
30/02:00am 10.9 10.9 9.7 92 0.6 CALM 0 4 0 2 1023.5 1023.5 0.0
30/01:30am 10.7 10.5 9.1 90 0.8 CALM 0 0 0 0 1023.7 1023.7 0.0
30/01:00am 11.2 9.8 9.5 89 0.9 NW 7 7 4 4 1023.7 1023.7 0.0
30/12:30am 11.5 9.4 9.9 90 0.8 N 11 13 6 7 1023.7 1023.7 0.0
30/12:00am 11.4 9.3 9.7 89 0.9 N 11 11 6 6 1023.8 1023.8 0.0
 
Date/Time
EDT
Temp
°C
App
Temp
°C
Dew
Point
Rel
Hum
%
Delta-T
°C
Wind Press
QNH
hPa
Press
MSL
hPa
Rain
since 9 am
mm
Dir
 
Spd
km/h
Gust
km/h
Spd
kts
Gust
kts
29/11:30pm 12.2 10.2 10.1 87 1.1 N 11 13 6 7 1024.0 1024.0 0.0
29/11:00pm 12.5 10.9 10.2 86 1.2 N 9 11 5 6 1024.0 1024.0 0.0
29/10:30pm 13.3 12.0 11.2 87 1.1 N 9 11 5 6 1024.1 1024.1 0.0
29/10:00pm 12.9 11.4 10.4 85 1.3 N 9 11 5 6 1024.0 1024.0 0.0
29/09:30pm 13.6 13.9 10.8 83 1.5 CALM 0 4 0 2 1023.7 1023.7 0.0
29/09:00pm 13.7 12.7 10.9 83 1.5 SSE 7 9 4 5 1023.3 1023.3 0.0
29/08:30pm 14.3 12.8 10.7 79 1.9 SSE 9 11 5 6 1022.9 1022.9 0.0
29/08:00pm 15.0 13.2 10.8 76 2.2 SSE 11 13 6 7 1022.6 1022.6 0.0
29/07:30pm 16.2 13.6 10.7 70 2.9 SSE 15 20 8 11 1022.2 1022.2 0.0
29/07:00pm 17.6 13.3 10.9 65 3.6 SSE 24 30 13 16 1021.8 1021.8 0.0
29/06:30pm 18.9 14.2 10.5 58 4.5 S 26 32 14 17 1021.4 1021.4 0.0
29/06:00pm 19.9 15.4 10.0 53 5.3 SSE 24 30 13 16 1020.9 1020.9 0.0
29/05:30pm 20.4 15.7 10.5 53 5.4 SE 26 32 14 17 1020.4 1020.4 0.0
29/05:00pm 22.0 19.0 10.5 48 6.3 E 17 33 9 18 1020.0 1020.0 0.0
29/04:30pm 25.0 20.8 8.1 34 9.0 WSW 20 32 11 17 1019.8 1019.8 0.0
29/04:00pm 24.4 19.8 8.0 35 8.7 WSW 22 35 12 19 1019.9 1019.9 0.0

Other Formats:

Comma delimited format used in spreadsheet applications
http://www.bom.gov.au/fwo/IDV60801/IDV60801.94854.axf

JavaScript Object Notation format (JSON) in row-major order
http://www.bom.gov.au/fwo/IDV60801/IDV60801.94854.json